Popsquash, Vermont
Current Conditions -  °F | °C
As of 12:15 PM on Thursday 18 Dec 2014 (Local Time) from KFSO Reporting Station
Light Snow Light Snow  
Wind Chill: 31°   Ceiling: 500
Heat Index: 31°   Visibility: 1.2mi
Dew Point: 31°   Wind: 0mph
Humidity: 97%   Direction: NA
Pressure: 29.84"   Gusts: NA
Location:  44.9002°N, 73.1493°W
Report Text: KFSO 181715Z AUTO 00000KT 1 1/4SM -SN OVC005 00/M01 A2984 RMK AO2 T10031007
Loading
Personal Weather Stations






























Interactive Weather Map New forecast layout! Learn more

10-Day Weather Forecast

Advertisements
Track Severe Weather on mobile